Terminal Aerodrome Forecast
Issued by NWS

Home | Current Version | Previous Version | Text Only | Print | Product List | Glossary On
Versions: 1 2 3 4 5 6 7 8 9 10 11 12 13 14 15 16 17 18 19
117
FTUS42 TJSJ 172323
TAFNCM
TAF
TNCM 172323Z 1800/1824 04012KT P6SM VCSH FEW018 SCT035
      TEMPO 1800/1804 VRB12G20KT -SHRA BKN018 BKN035
     FM180500 07011KT P6SM -RA SCT018 SCT040
     FM181430 08014KT P6SM SCT022 SCT060=

USA.gov is the U.S. government's official web portal to all federal, state and local government web resources and services.